Time;durP1;ratioP1;P1;durP2;ratioP2;P2;SDS_P1;SDS_P2;PMS_P1;PMS_P2;Temp;Humidity;BMP_temperature;BMP_pressure;BME280_temperature;BME280_humidity;BME280_pressure;Samples;Min_cycle;Max_cycle;Signal;HPM_P1;HPM_P2
2022/07/15 00:02:11;;;;;;;8.50;1.98;;;13.60;99.90;;;;;;5115994;28;20402;-78
2022/07/15 00:04:38;;;;;;;8.75;2.60;;;13.60;99.90;;;;;;5115633;28;20055;-79
2022/07/15 00:07:06;;;;;;;10.02;2.67;;;13.70;99.90;;;;;;5134321;28;20055;-78
2022/07/15 00:12:17;;;;;;;12.02;2.75;;;13.70;99.90;;;;;;5103415;28;20048;-79
2022/07/15 00:14:45;;;;;;;8.82;2.40;;;13.80;99.90;;;;;;5095675;28;20051;-78
2022/07/15 00:17:14;;;;;;;7.72;1.92;;;13.80;99.90;;;;;;5095284;28;20052;-79
2022/07/15 00:19:40;;;;;;;6.57;2.42;;;13.80;99.90;;;;;;5096770;28;20051;-78
2022/07/15 00:22:08;;;;;;;12.52;2.97;;;13.90;99.90;;;;;;5117460;28;20047;-78
2022/07/15 00:24:35;;;;;;;5.95;2.17;;;13.90;99.90;;;;;;5099310;28;20127;-78
2022/07/15 00:27:03;;;;;;;10.27;2.15;;;13.90;99.90;;;;;;5116541;27;20070;-78
2022/07/15 00:29:30;;;;;;;6.82;1.88;;;14.00;99.90;;;;;;5098865;28;20134;-78
2022/07/15 00:31:58;;;;;;;6.78;1.98;;;14.00;99.90;;;;;;5099128;28;20048;-79
2022/07/15 00:34:25;;;;;;;9.13;2.50;;;14.10;99.90;;;;;;5117265;27;20048;-79
2022/07/15 00:36:52;;;;;;;8.77;2.45;;;14.10;99.90;;;;;;5098854;28;20097;-78
2022/07/15 00:39:19;;;;;;;6.75;1.90;;;14.10;99.90;;;;;;5116833;28;20044;-78
2022/07/15 00:41:46;;;;;;;7.75;2.15;;;14.20;99.90;;;;;;5116477;28;20103;-78
2022/07/15 00:44:13;;;;;;;8.68;2.47;;;14.10;99.90;;;;;;5117097;28;20052;-77
2022/07/15 00:46:41;;;;;;;10.48;2.47;;;14.10;99.90;;;;;;5097447;28;20051;-78
2022/07/15 00:49:11;;;;;;;7.47;2.15;;;14.00;99.90;;;;;;5111443;27;20047;-77
2022/07/15 00:51:41;;;;;;;7.35;2.63;;;14.00;99.90;;;;;;5118785;27;20116;-78
2022/07/15 00:54:09;;;;;;;;;;;14.00;99.90;;;;;;5137120;27;20453;-77
2022/07/15 00:56:39;;;;;;;5.00;2.00;;;13.90;99.90;;;;;;5129435;27;19924;-78
2022/07/15 00:59:07;;;;;;;5.47;2.10;;;13.90;99.90;;;;;;5098454;28;20130;-77
2022/07/15 01:01:35;;;;;;;6.85;2.35;;;13.90;99.90;;;;;;5098094;28;20683;-77
2022/07/15 01:04:03;;;;;;;7.35;2.22;;;13.80;99.90;;;;;;5098633;28;20051;-76
2022/07/15 01:06:32;;;;;;;5.68;2.20;;;13.80;99.90;;;;;;5116890;28;20059;-77
2022/07/15 01:08:59;;;;;;;6.40;1.90;;;13.70;99.90;;;;;;5119395;27;20039;-77
2022/07/15 01:11:30;;;;;;;6.18;1.98;;;13.70;99.90;;;;;;5137208;27;20107;-76
2022/07/15 01:13:57;;;;;;;13.52;1.83;;;13.60;99.90;;;;;;5119135;27;20055;-76
2022/07/15 01:16:24;;;;;;;9.70;2.30;;;13.60;99.90;;;;;;5136694;27;20054;-76
2022/07/15 01:18:51;;;;;;;6.22;1.98;;;13.60;99.90;;;;;;5137180;27;20047;-76
2022/07/15 01:21:19;;;;;;;6.82;1.85;;;13.70;99.90;;;;;;5138254;27;20453;-77
2022/07/15 01:23:46;;;;;;;4.72;1.73;;;13.70;99.90;;;;;;5133886;27;20051;-77
2022/07/15 01:26:14;;;;;;;7.82;2.63;;;13.80;99.90;;;;;;5100530;28;20055;-76
2022/07/15 01:28:42;;;;;;;6.22;2.53;;;13.80;99.90;;;;;;5116552;28;20047;-76
2022/07/15 01:31:10;;;;;;;9.30;2.20;;;13.80;99.90;;;;;;5096314;28;20051;-75
2022/07/15 01:33:38;;;;;;;7.93;1.92;;;13.80;99.90;;;;;;5096840;28;20055;-75
2022/07/15 01:36:06;;;;;;;6.95;2.15;;;13.80;99.90;;;;;;5098417;28;20043;-77
2022/07/15 01:38:35;;;;;;;6.45;2.33;;;13.80;99.90;;;;;;5096971;27;20044;-76
2022/07/15 01:41:02;;;;;;;10.48;2.33;;;13.80;99.90;;;;;;5117719;27;20414;-75
2022/07/15 01:43:29;;;;;;;7.00;2.03;;;13.80;99.90;;;;;;5116670;27;20043;-78
2022/07/15 01:45:56;;;;;;;17.63;2.70;;;13.80;99.90;;;;;;5136206;27;20457;-77
2022/07/15 01:51:08;;;;;;;7.60;2.17;;;13.70;99.90;;;;;;5117486;27;20047;-77
2022/07/15 01:53:36;;;;;;;6.95;2.00;;;13.70;99.90;;;;;;5136183;27;20145;-77
2022/07/15 01:56:03;;;;;;;5.10;1.38;;;13.60;99.90;;;;;;5135933;27;20059;-76
2022/07/15 01:58:30;;;;;;;5.65;1.33;;;13.60;99.90;;;;;;5135144;27;20456;-77
2022/07/15 02:00:57;;;;;;;4.88;1.45;;;13.70;99.90;;;;;;5117625;27;20047;-77
2022/07/15 02:03:24;;;;;;;5.38;1.90;;;13.60;99.90;;;;;;5115293;28;20062;-78
2022/07/15 02:05:50;;;;;;;5.00;1.77;;;13.60;99.90;;;;;;5096291;28;20055;-77
2022/07/15 02:08:17;;;;;;;6.30;1.60;;;13.60;99.90;;;;;;5097940;27;20050;-78
2022/07/15 02:10:46;;;;;;;8.63;2.25;;;13.50;99.90;;;;;;5135318;27;20047;-78
2022/07/15 02:13:14;;;;;;;5.53;1.60;;;13.40;99.90;;;;;;5135236;27;20047;-78
2022/07/15 02:15:42;;;;;;;7.97;1.55;;;13.30;99.90;;;;;;5135580;27;20047;-78
2022/07/15 02:18:11;;;;;;;8.45;2.50;;;13.20;99.90;;;;;;5134266;27;20053;-75
2022/07/15 02:20:38;;;;;;;9.80;2.10;;;13.10;99.90;;;;;;5135136;27;20043;-76
2022/07/15 02:23:05;;;;;;;2.47;1.38;;;13.00;99.90;;;;;;5133594;27;20066;-76
2022/07/15 02:25:33;;;;;;;6.20;1.70;;;13.00;99.90;;;;;;5113698;28;20402;-76
2022/07/15 02:28:03;;;;;;;3.67;1.38;;;12.90;99.90;;;;;;5114614;28;20048;-75
2022/07/15 02:30:32;;;;;;;5.35;1.42;;;12.80;99.90;;;;;;5114529;28;20055;-76
2022/07/15 02:32:59;;;;;;;5.10;1.35;;;12.80;99.90;;;;;;5095608;28;20062;-76
2022/07/15 02:35:26;;;;;;;7.95;1.95;;;12.80;99.90;;;;;;5096497;28;20085;-76
2022/07/15 02:37:54;;;;;;;6.95;1.70;;;12.70;99.90;;;;;;5097515;27;20055;-76
2022/07/15 02:40:21;;;;;;;5.28;1.73;;;12.60;99.90;;;;;;5133208;27;20047;-75
2022/07/15 02:42:49;;;;;;;6.00;1.48;;;12.60;99.90;;;;;;5134654;27;20512;-75
2022/07/15 02:45:18;;;;;;;7.55;2.08;;;12.50;99.90;;;;;;5116494;27;20129;-75
2022/07/15 02:47:45;;;;;;;8.18;1.98;;;12.60;99.90;;;;;;5113327;28;20055;-77
2022/07/15 02:50:12;;;;;;;6.82;1.60;;;12.50;99.90;;;;;;5114111;28;20051;-76
2022/07/15 02:52:39;;;;;;;2.88;1.45;;;12.40;99.90;;;;;;5114328;28;20083;-76
2022/07/15 02:55:07;;;;;;;6.15;1.60;;;12.40;99.90;;;;;;5113334;28;20047;-76
2022/07/15 02:57:34;;;;;;;7.40;2.13;;;12.40;99.90;;;;;;5095876;28;20051;-76
2022/07/15 03:00:01;;;;;;;4.88;1.40;;;12.40;99.90;;;;;;5113907;28;20050;-75
2022/07/15 03:02:30;;;;;;;9.82;2.13;;;12.30;99.90;;;;;;5095584;28;20066;-76
2022/07/15 03:04:57;;;;;;;7.03;1.55;;;12.20;99.90;;;;;;5095880;28;20490;-76
2022/07/15 03:07:24;;;;;;;7.50;1.77;;;12.20;99.90;;;;;;5095074;28;20055;-75
2022/07/15 03:09:51;;;;;;;6.68;2.15;;;12.20;99.90;;;;;;5111295;27;20052;-76
2022/07/15 03:12:18;;;;;;;7.07;1.90;;;12.10;99.90;;;;;;5134354;27;20486;-78
2022/07/15 03:14:45;;;;;;;8.23;1.70;;;12.10;99.90;;;;;;5115421;27;20047;-75
2022/07/15 03:17:12;;;;;;;4.15;1.23;;;12.00;99.90;;;;;;5100441;28;20100;-76
2022/07/15 03:19:41;;;;;;;7.63;1.35;;;12.00;99.90;;;;;;5113458;28;20044;-75
2022/07/15 03:22:08;;;;;;;8.38;1.80;;;11.90;99.90;;;;;;5097675;28;20058;-76
2022/07/15 03:24:35;;;;;;;8.45;1.48;;;11.90;99.90;;;;;;5134331;28;20508;-77
2022/07/15 03:27:02;;;;;;;7.35;1.60;;;11.90;99.90;;;;;;5116466;28;20047;-78
2022/07/15 03:29:29;;;;;;;2.60;1.23;;;12.00;99.90;;;;;;5133177;28;20054;-77
2022/07/15 03:31:57;;;;;;;4.13;1.50;;;12.00;99.90;;;;;;5116439;28;20133;-77
2022/07/15 03:34:25;;;;;;;9.75;1.80;;;12.10;99.90;;;;;;5134488;28;20366;-77
2022/07/15 03:36:54;;;;;;;5.63;1.42;;;12.10;99.90;;;;;;5133329;28;20134;-77
2022/07/15 03:39:21;;;;;;;7.65;1.73;;;12.20;99.90;;;;;;5103971;28;20100;-77
2022/07/15 03:41:48;;;;;;;3.67;1.20;;;12.20;99.90;;;;;;5113364;28;20059;-77
2022/07/15 03:44:16;;;;;;;2.75;1.38;;;12.20;99.90;;;;;;5094614;28;20117;-77
2022/07/15 03:46:44;;;;;;;6.25;1.55;;;12.30;99.90;;;;;;5095314;28;20063;-77
2022/07/15 03:49:11;;;;;;;5.85;1.35;;;12.30;99.90;;;;;;5095665;28;20047;-79
2022/07/15 03:51:38;;;;;;;6.18;1.48;;;12.40;99.90;;;;;;5094770;28;20054;-79
2022/07/15 03:54:07;;;;;;;4.63;1.50;;;12.40;99.90;;;;;;5108056;27;20050;-79
2022/07/15 03:56:34;;;;;;;2.85;1.20;;;12.40;99.90;;;;;;5137477;27;20155;-78
2022/07/15 03:59:01;;;;;;;5.68;1.38;;;12.50;99.90;;;;;;5138173;27;20107;-78
2022/07/15 04:01:28;;;;;;;6.13;1.38;;;12.60;99.90;;;;;;5119813;27;20051;-77
2022/07/15 04:03:55;;;;;;;3.22;0.90;;;12.60;99.90;;;;;;5119471;27;20448;-77
2022/07/15 04:06:24;;;;;;;4.78;1.33;;;12.70;99.90;;;;;;5119686;27;20054;-78
2022/07/15 04:08:51;;;;;;;3.13;1.10;;;12.80;99.90;;;;;;5126100;27;20055;-78
2022/07/15 04:11:19;;;;;;;2.67;1.20;;;12.80;99.90;;;;;;5116247;28;20115;-77
2022/07/15 04:13:47;;;;;;;3.35;1.00;;;12.90;99.90;;;;;;5099522;28;20100;-78
2022/07/15 04:16:17;;;;;;;5.75;1.55;;;12.90;99.90;;;;;;5099045;28;20069;-78
2022/07/15 04:18:44;;;;;;;2.78;1.15;;;13.10;99.90;;;;;;5116837;28;20043;-77
2022/07/15 04:21:11;;;;;;;6.82;1.17;;;13.10;99.90;;;;;;5117344;28;20055;-76
2022/07/15 04:23:38;;;;;;;5.28;1.10;;;13.20;99.90;;;;;;5110454;27;20051;-78
2022/07/15 04:26:05;;;;;;;3.95;1.17;;;13.30;99.90;;;;;;5136548;27;20115;-77
2022/07/15 04:28:33;;;;;;;4.22;1.02;;;13.40;99.90;;;;;;5119160;27;20047;-78
2022/07/15 04:31:00;;;;;;;5.20;0.90;;;13.50;99.90;;;;;;5137281;27;20051;-77
2022/07/15 04:33:27;;;;;;;6.78;1.08;;;13.50;99.90;;;;;;5118705;27;20047;-77
2022/07/15 04:35:55;;;;;;;3.90;1.45;;;13.60;99.90;;;;;;5135333;27;20065;-78
2022/07/15 04:38:22;;;;;;;1.98;0.80;;;13.70;99.90;;;;;;5124108;27;20061;-79
2022/07/15 04:40:49;;;;;;;5.97;1.02;;;14.20;99.90;;;;;;5114597;27;20077;-79
2022/07/15 04:43:15;;;;;;;4.25;1.30;;;14.40;99.90;;;;;;5134768;27;20043;-79
2022/07/15 04:45:44;;;;;;;3.67;1.27;;;14.60;99.90;;;;;;5114394;27;20055;-78
2022/07/15 04:50:52;;;;;;;;;;;15.10;99.90;;;;;;5111598;27;20124;-75
2022/07/15 04:53:19;;;;;;;3.45;1.10;;;15.40;99.90;;;;;;5131902;27;19998;-77
2022/07/15 04:55:46;;;;;;;3.85;1.13;;;15.50;99.90;;;;;;5132318;27;20084;-77
2022/07/15 04:58:14;;;;;;;2.72;0.98;;;15.50;99.90;;;;;;5114106;27;20047;-76
2022/07/15 05:00:42;;;;;;;7.03;0.95;;;15.30;99.90;;;;;;5112945;27;20039;-77
2022/07/15 05:03:10;;;;;;;3.45;0.85;;;15.10;99.90;;;;;;5131158;27;20104;-76
2022/07/15 05:05:37;;;;;;;5.13;1.40;;;14.90;99.90;;;;;;5129914;27;20050;-78
2022/07/15 05:08:05;;;;;;;2.83;0.90;;;14.70;99.90;;;;;;5114373;27;20510;-78
2022/07/15 05:10:33;;;;;;;4.60;1.35;;;14.60;99.90;;;;;;5113425;27;20535;-76
2022/07/15 05:13:00;;;;;;;1.98;0.90;;;14.50;99.90;;;;;;5133086;27;20126;-75
2022/07/15 05:15:27;;;;;;;4.30;1.00;;;14.40;99.90;;;;;;5125947;27;20050;-77
2022/07/15 05:17:54;;;;;;;3.47;1.00;;;14.40;99.90;;;;;;5111266;27;20072;-77
2022/07/15 05:20:22;;;;;;;3.03;1.00;;;14.40;99.90;;;;;;5134597;27;20131;-78
2022/07/15 05:22:49;;;;;;;2.95;0.90;;;14.40;99.90;;;;;;5131161;27;20092;-77
2022/07/15 05:25:16;;;;;;;2.47;0.90;;;14.40;99.90;;;;;;5114482;27;20053;-78
2022/07/15 05:27:44;;;;;;;3.42;1.00;;;14.50;99.90;;;;;;5125275;27;20055;-76
2022/07/15 05:30:13;;;;;;;5.38;1.08;;;14.40;99.90;;;;;;5115656;27;20499;-77
2022/07/15 05:32:40;;;;;;;5.22;1.30;;;14.80;99.90;;;;;;5114402;27;20120;-76
2022/07/15 05:35:07;;;;;;;3.35;1.02;;;14.90;99.90;;;;;;5106132;27;20495;-75
2022/07/15 05:37:38;;;;;;;3.97;1.23;;;15.10;99.90;;;;;;5117241;27;20059;-75
2022/07/15 05:40:06;;;;;;;4.55;0.90;;;15.30;99.90;;;;;;5134503;27;20043;-77
2022/07/15 05:42:33;;;;;;;9.32;1.90;;;15.60;99.90;;;;;;5133110;27;20053;-77
2022/07/15 05:45:01;;;;;;;2.60;0.93;;;15.90;99.90;;;;;;5114713;27;20387;-78
2022/07/15 05:47:28;;;;;;;4.78;1.30;;;16.00;99.90;;;;;;5114352;27;20138;-77
2022/07/15 05:49:55;;;;;;;4.28;1.00;;;16.00;99.90;;;;;;5128380;27;20066;-76
2022/07/15 05:52:22;;;;;;;6.95;1.10;;;16.00;99.90;;;;;;5107299;27;20047;-77
2022/07/15 05:54:50;;;;;;;5.45;1.17;;;16.00;99.90;;;;;;5134031;27;20051;-77
2022/07/15 05:57:17;;;;;;;6.53;0.90;;;15.90;99.90;;;;;;5105069;27;20052;-78
2022/07/15 05:59:44;;;;;;;10.80;1.23;;;15.90;99.90;;;;;;5128700;27;20043;-78
2022/07/15 06:02:13;;;;;;;3.22;1.00;;;15.80;99.90;;;;;;5115168;27;20043;-78
2022/07/15 06:04:40;;;;;;;5.97;1.33;;;15.90;99.90;;;;;;5115736;27;20051;-78
2022/07/15 06:07:07;;;;;;;2.65;0.75;;;15.90;99.90;;;;;;5133784;27;20047;-77
2022/07/15 06:09:34;;;;;;;4.72;1.15;;;15.80;99.90;;;;;;5134292;27;20047;-78
2022/07/15 06:12:03;;;;;;;5.95;1.05;;;15.80;99.90;;;;;;5134438;27;20047;-78
2022/07/15 06:14:29;;;;;;;5.70;1.10;;;15.80;99.90;;;;;;5135225;27;20483;-78
2022/07/15 06:16:56;;;;;;;4.15;1.08;;;15.80;99.90;;;;;;5114559;27;20051;-78
2022/07/15 06:19:23;;;;;;;4.38;0.90;;;15.80;99.90;;;;;;5113997;27;20043;-77
2022/07/15 06:21:50;;;;;;;4.32;1.10;;;15.70;99.90;;;;;;5114216;28;20048;-77
2022/07/15 06:24:17;;;;;;;5.25;1.50;;;15.80;99.90;;;;;;5125002;27;20051;-78
2022/07/15 06:26:44;;;;;;;5.80;1.10;;;15.80;99.90;;;;;;5117037;27;20051;-79
2022/07/15 06:29:12;;;;;;;3.75;1.20;;;16.00;99.90;;;;;;5116772;27;20046;-78
2022/07/15 06:31:39;;;;;;;11.75;1.92;;;16.10;99.90;;;;;;5138461;27;20051;-81
2022/07/15 06:34:06;;;;;;;6.10;1.30;;;16.30;99.90;;;;;;5143712;27;20043;-79
2022/07/15 06:36:33;;;;;;;2.50;0.90;;;16.50;99.90;;;;;;5125609;27;20434;-77
2022/07/15 06:39:00;;;;;;;13.40;1.75;;;16.60;99.90;;;;;;5109419;27;20481;-78
2022/07/15 06:41:28;;;;;;;4.10;1.00;;;16.60;99.90;;;;;;5101995;27;20058;-77
2022/07/15 06:43:54;;;;;;;5.93;1.30;;;16.50;99.90;;;;;;5128196;27;20403;-76
2022/07/15 06:46:23;;;;;;;3.30;0.75;;;16.50;99.90;;;;;;5114074;28;20060;-77
2022/07/15 06:48:50;;;;;;;5.03;1.20;;;16.50;99.90;;;;;;5113758;28;20081;-78
2022/07/15 06:51:16;;;;;;;9.18;1.00;;;16.40;99.90;;;;;;5095012;28;20062;-78
2022/07/15 06:53:43;;;;;;;4.07;1.20;;;16.40;99.90;;;;;;5112657;28;20055;-76
2022/07/15 06:56:11;;;;;;;6.45;1.35;;;16.50;99.90;;;;;;5095248;28;20097;-77
2022/07/15 06:58:38;;;;;;;2.20;1.00;;;16.60;99.90;;;;;;5113274;28;20487;-77
2022/07/15 07:01:06;;;;;;;5.20;1.40;;;16.70;99.90;;;;;;5093964;28;20499;-77
2022/07/15 07:03:34;;;;;;;3.42;1.23;;;17.00;99.90;;;;;;5095380;28;20052;-77
2022/07/15 07:06:01;;;;;;;4.85;0.75;;;17.50;99.90;;;;;;5094254;28;20054;-76
2022/07/15 07:08:28;;;;;;;3.08;0.90;;;18.30;99.90;;;;;;5106313;28;20047;-77
2022/07/15 07:10:55;;;;;;;4.00;1.02;;;18.70;99.90;;;;;;5133149;28;20047;-77
2022/07/15 07:13:23;;;;;;;4.68;1.08;;;18.90;99.90;;;;;;5133289;28;20047;-77
2022/07/15 07:15:49;;;;;;;4.13;0.93;;;19.00;99.90;;;;;;5114657;28;20051;-77
2022/07/15 07:18:16;;;;;;;3.13;0.70;;;19.10;99.90;;;;;;5100517;28;20058;-76
2022/07/15 07:20:44;;;;;;;3.97;0.82;;;19.40;99.90;;;;;;5093593;28;20487;-77
2022/07/15 07:23:12;;;;;;;3.38;0.98;;;19.70;99.90;;;;;;5093968;28;20059;-77
2022/07/15 07:25:39;;;;;;;3.53;1.55;;;19.90;99.90;;;;;;5112806;28;20134;-77
2022/07/15 07:28:06;;;;;;;4.10;0.82;;;20.70;99.90;;;;;;5098898;28;20092;-78
2022/07/15 07:30:34;;;;;;;6.72;1.13;;;20.70;99.90;;;;;;5132441;28;20047;-79
2022/07/15 07:33:01;;;;;;;4.22;0.60;;;20.20;99.90;;;;;;5114519;28;20058;-77
2022/07/15 07:35:27;;;;;;;7.63;1.00;;;19.50;99.90;;;;;;5114224;28;20051;-76
2022/07/15 07:37:56;;;;;;;3.75;0.95;;;19.10;99.90;;;;;;5115230;28;20099;-77
2022/07/15 07:40:22;;;;;;;4.70;0.98;;;18.80;99.90;;;;;;5133481;28;20043;-78
2022/07/15 07:42:50;;;;;;;2.97;1.05;;;18.40;99.90;;;;;;5124512;28;20105;-77
2022/07/15 07:45:16;;;;;;;6.53;1.33;;;18.30;99.90;;;;;;5112165;28;20506;-77
2022/07/15 07:47:43;;;;;;;1.92;0.73;;;18.30;99.90;;;;;;5072821;28;1128260;-77
2022/07/15 07:50:11;;;;;;;3.75;0.70;;;18.30;99.90;;;;;;5093896;28;20097;-78
2022/07/15 07:52:38;;;;;;;2.88;0.70;;;18.30;99.90;;;;;;5094665;28;20066;-78
2022/07/15 07:55:07;;;;;;;3.28;0.95;;;18.40;99.90;;;;;;5094932;28;20131;-76
2022/07/15 07:57:34;;;;;;;4.22;0.73;;;18.50;99.90;;;;;;5095511;28;20050;-77
2022/07/15 08:00:02;;;;;;;3.20;0.90;;;18.40;99.90;;;;;;5113095;28;20043;-78
2022/07/15 08:02:29;;;;;;;2.80;1.05;;;18.30;99.90;;;;;;5094731;28;20066;-78
2022/07/15 08:04:59;;;;;;;2.40;0.75;;;18.30;99.90;;;;;;5093404;28;20087;-76
2022/07/15 08:07:26;;;;;;;1.73;0.68;;;18.40;99.90;;;;;;5114857;28;20783;-78
2022/07/15 08:09:54;;;;;;;2.88;1.27;;;19.00;99.90;;;;;;5130554;28;20043;-77
2022/07/15 08:12:22;;;;;;;3.80;1.13;;;19.80;99.90;;;;;;5141096;28;20066;-77
2022/07/15 08:14:51;;;;;;;1.67;0.70;;;20.10;99.90;;;;;;5120981;28;20059;-77
2022/07/15 08:17:17;;;;;;;3.83;1.20;;;20.10;99.90;;;;;;5118968;28;20083;-77
2022/07/15 08:19:45;;;;;;;2.97;0.70;;;19.70;99.90;;;;;;5139127;28;20046;-77
2022/07/15 08:22:12;;;;;;;2.03;0.77;;;19.50;99.90;;;;;;5139724;28;20054;-76
2022/07/15 08:24:38;;;;;;;2.60;0.73;;;19.30;99.90;;;;;;5111920;28;20101;-77
2022/07/15 08:27:05;;;;;;;2.45;0.73;;;19.40;99.90;;;;;;5113025;28;20058;-77
2022/07/15 08:29:33;;;;;;;3.97;0.70;;;19.40;99.90;;;;;;5095022;28;20055;-76
2022/07/15 08:32:00;;;;;;;4.00;0.90;;;19.40;99.90;;;;;;5094224;28;20555;-81
2022/07/15 08:34:28;;;;;;;1.92;0.80;;;19.60;99.90;;;;;;5113100;28;20501;-77
2022/07/15 08:36:55;;;;;;;2.20;0.80;;;19.90;99.90;;;;;;5113071;28;20059;-77
2022/07/15 08:39:22;;;;;;;1.10;0.50;;;20.50;99.90;;;;;;5118975;27;20047;-77
2022/07/15 08:41:51;;;;;;;4.25;0.63;;;21.10;99.90;;;;;;5136374;27;20058;-76
2022/07/15 08:44:18;;;;;;;3.65;0.90;;;21.50;99.90;;;;;;5132953;27;20050;-78
2022/07/15 08:46:48;;;;;;;3.92;0.70;;;21.70;99.90;;;;;;5136014;27;20055;-78
2022/07/15 08:49:18;;;;;;;2.78;0.80;;;22.10;99.90;;;;;;5137138;27;20047;-79
2022/07/15 08:51:47;;;;;;;3.30;0.80;;;22.00;99.50;;;;;;5118866;27;20496;-78
2022/07/15 08:54:15;;;;;;;5.07;0.77;;;21.80;98.70;;;;;;5116800;27;20054;-77
2022/07/15 08:56:45;;;;;;;2.88;0.60;;;21.40;98.70;;;;;;5118345;27;20436;-77
2022/07/15 08:59:12;;;;;;;2.08;0.60;;;21.20;98.80;;;;;;5123393;27;20051;-77
2022/07/15 09:01:44;;;;;;;2.15;0.77;;;21.10;98.80;;;;;;5116209;28;20047;-77
2022/07/15 09:04:12;;;;;;;3.67;0.70;;;21.50;98.20;;;;;;5116305;28;20052;-78
2022/07/15 09:06:40;;;;;;;2.70;0.80;;;21.80;97.50;;;;;;5097294;28;20055;-77
2022/07/15 09:09:25;;;;;;;2.25;0.85;;;21.80;96.50;;;;;;5098123;28;20495;-78
2022/07/15 09:12:01;;;;;;;5.45;0.70;;;21.20;95.50;;;;;;5135223;27;20470;-78
2022/07/15 09:14:29;;;;;;;10.27;1.20;;;20.80;96.10;;;;;;5134637;27;20444;-77
2022/07/15 09:17:24;;;;;;;2.05;0.60;;;20.40;97.10;;;;;;5139552;27;20406;-77
2022/07/15 09:20:01;;;;;;;3.33;0.70;;;20.30;97.40;;;;;;5134133;27;20115;-78
2022/07/15 09:22:30;;;;;;;1.02;0.50;;;20.40;97.60;;;;;;5136959;27;20198;-78
2022/07/15 09:25:06;;;;;;;1.67;0.70;;;20.40;97.50;;;;;;5120309;27;20405;-78
2022/07/15 09:27:35;;;;;;;4.80;0.60;;;20.90;97.40;;;;;;5125876;27;20065;-76
2022/07/15 09:36:05;;;;;;;2.42;0.60;;;21.60;95.40;;;;;;5117612;27;20043;-77
2022/07/15 09:38:40;;;;;;;6.88;1.05;;;21.30;94.90;;;;;;5136194;27;20509;-77
2022/07/15 09:41:08;;;;;;;10.68;1.63;;;21.20;95.60;;;;;;5117347;27;20071;-77
2022/07/15 09:43:46;;;;;;;4.95;1.00;;;21.50;95.70;;;;;;5100651;28;20043;-80
2022/07/15 09:46:13;;;;;;;2.20;0.70;;;21.50;95.40;;;;;;5102698;27;20066;-78
2022/07/15 09:48:41;;;;;;;6.35;1.20;;;21.60;95.60;;;;;;5134268;27;20051;-78
2022/07/15 09:51:11;;;;;;;4.30;0.90;;;22.00;95.40;;;;;;5115313;27;20052;-79
2022/07/15 09:53:40;;;;;;;2.88;0.77;;;22.10;94.00;;;;;;5096882;28;20051;-78
2022/07/15 09:56:09;;;;;;;2.97;0.95;;;22.70;94.30;;;;;;5096574;28;20532;-79
2022/07/15 09:58:42;;;;;;;2.53;0.75;;;23.40;93.70;;;;;;5108006;27;20099;-79
2022/07/15 10:01:11;;;;;;;1.88;0.60;;;23.50;92.40;;;;;;5117140;27;20051;-79
2022/07/15 10:03:39;;;;;;;3.92;0.60;;;23.40;92.00;;;;;;5119241;27;20440;-78
2022/07/15 10:06:06;;;;;;;2.13;0.60;;;23.50;91.80;;;;;;5118284;27;20516;-80
2022/07/15 10:08:36;;;;;;;5.38;0.80;;;23.30;91.40;;;;;;5116682;27;20439;-79
2022/07/15 10:11:10;;;;;;;3.55;0.93;;;23.30;90.70;;;;;;5132459;27;20047;-79
2022/07/15 10:14:09;;;;;;;4.10;0.60;;;23.60;90.90;;;;;;5135925;27;20075;-79
2022/07/15 10:16:52;;;;;;;1.60;0.50;;;23.90;90.40;;;;;;5107794;28;20047;-79
2022/07/15 10:19:27;;;;;;;4.38;0.70;;;24.20;89.30;;;;;;5096666;28;20059;-78
2022/07/15 10:22:06;;;;;;;2.00;0.57;;;24.20;88.80;;;;;;5096635;28;20068;-79
2022/07/15 10:24:48;;;;;;;3.42;0.80;;;23.90;88.30;;;;;;5096105;28;20135;-79
2022/07/15 10:27:39;;;;;;;3.40;0.70;;;23.70;89.30;;;;;;5096515;28;20453;-78
2022/07/15 10:30:08;;;;;;;1.67;0.50;;;23.70;88.50;;;;;;5096803;27;20469;-78
2022/07/15 10:33:13;;;;;;;3.85;0.75;;;23.60;87.30;;;;;;5116187;27;20444;-79
2022/07/15 10:35:43;;;;;;;2.20;0.60;;;23.50;87.80;;;;;;5114063;27;20101;-79
2022/07/15 10:38:30;;;;;;;2.80;0.70;;;23.20;89.20;;;;;;5112488;27;20513;-78
2022/07/15 10:41:00;;;;;;;1.48;0.50;;;23.20;89.20;;;;;;5112556;28;20047;-77
2022/07/15 10:43:42;;;;;;;1.95;0.75;;;23.20;88.80;;;;;;5117321;27;20070;-76
2022/07/15 10:46:21;;;;;;;3.42;0.68;;;23.10;88.60;;;;;;5132363;27;20104;-77
2022/07/15 10:48:49;;;;;;;3.13;0.70;;;23.00;88.70;;;;;;5114541;27;20043;-77
2022/07/15 10:51:44;;;;;;;2.28;0.70;;;22.40;89.30;;;;;;5134214;27;20055;-78
2022/07/15 10:54:32;;;;;;;4.68;0.90;;;22.20;90.00;;;;;;5134050;27;20051;-77
2022/07/15 10:57:01;;;;;;;1.70;0.68;;;22.00;89.80;;;;;;5133215;27;20055;-76
2022/07/15 10:59:36;;;;;;;3.72;0.70;;;21.90;89.50;;;;;;5115091;27;20108;-77
2022/07/15 11:02:16;;;;;;;2.55;0.60;;;21.80;89.50;;;;;;5116270;27;20100;-77
2022/07/15 11:04:44;;;;;;;2.08;0.68;;;21.80;90.00;;;;;;5116416;27;20086;-77
2022/07/15 11:07:25;;;;;;;2.05;0.60;;;21.50;90.30;;;;;;5134108;27;20130;-77
2022/07/15 11:09:54;;;;;;;1.98;0.65;;;21.40;90.30;;;;;;5133764;27;20054;-77
2022/07/15 11:12:24;;;;;;;1.05;0.45;;;21.40;90.00;;;;;;5129765;27;20505;-76
2022/07/15 11:14:54;;;;;;;0.82;0.52;;;21.50;90.20;;;;;;5134194;27;20123;-79
2022/07/15 11:17:29;;;;;;;3.03;0.57;;;21.60;90.10;;;;;;5116927;27;20566;-78
2022/07/15 11:19:58;;;;;;;2.35;0.80;;;21.70;90.10;;;;;;5116125;27;20520;-78
2022/07/15 11:22:26;;;;;;;7.90;0.60;;;21.60;90.50;;;;;;5139306;27;20043;-78
2022/07/15 11:24:54;;;;;;;5.10;0.85;;;21.50;90.70;;;;;;5137718;27;20051;-77
2022/07/15 11:27:23;;;;;;;3.42;0.60;;;21.40;90.80;;;;;;5114999;28;20051;-77
2022/07/15 11:29:52;;;;;;;2.33;0.80;;;21.50;90.70;;;;;;5136245;28;20437;-78
2022/07/15 11:32:21;;;;;;;2.28;0.75;;;21.30;90.90;;;;;;5140389;28;20046;-78
2022/07/15 11:34:50;;;;;;;1.70;0.70;;;21.30;91.10;;;;;;5122789;28;20092;-77
2022/07/15 11:37:19;;;;;;;2.63;0.70;;;21.20;91.10;;;;;;5124957;28;20074;-77
2022/07/15 11:39:51;;;;;;;2.15;0.57;;;21.40;91.40;;;;;;5138345;28;20050;-77
2022/07/15 11:45:12;;;;;;;5.68;0.90;;;21.40;91.30;;;;;;5117964;28;20055;-76
2022/07/15 11:47:52;;;;;;;7.00;0.98;;;21.30;91.50;;;;;;5116423;28;20058;-78
2022/07/15 11:50:19;;;;;;;2.55;0.77;;;21.60;91.30;;;;;;5133438;28;20067;-77
2022/07/15 11:52:47;;;;;;;3.20;0.73;;;22.30;91.20;;;;;;5132907;28;20073;-77
2022/07/15 11:55:14;;;;;;;5.88;0.95;;;22.90;90.70;;;;;;5132974;28;20131;-77
2022/07/15 11:57:46;;;;;;;3.67;0.85;;;23.10;90.10;;;;;;5131362;28;20043;-77
2022/07/15 12:00:14;;;;;;;4.00;0.88;;;23.30;89.80;;;;;;5133663;28;20491;-77
2022/07/15 12:02:41;;;;;;;3.38;0.85;;;23.30;89.40;;;;;;5114691;28;20112;-77
2022/07/15 12:05:09;;;;;;;2.97;0.73;;;23.10;89.70;;;;;;5134061;28;20053;-78
2022/07/15 12:07:43;;;;;;;5.35;1.20;;;22.70;90.10;;;;;;5133472;28;20054;-78
2022/07/15 12:10:11;;;;;;;5.13;1.00;;;22.50;90.50;;;;;;5132988;28;20047;-77
2022/07/15 12:12:44;;;;;;;1.63;0.80;;;22.20;91.00;;;;;;5122396;28;20088;-79
2022/07/15 12:15:11;;;;;;;2.28;1.00;;;21.80;91.70;;;;;;5096307;28;20108;-78
2022/07/15 12:17:40;;;;;;;1.67;0.70;;;21.60;92.20;;;;;;5098810;28;20169;-78
2022/07/15 12:20:09;;;;;;;3.08;0.88;;;21.20;92.50;;;;;;5098653;28;20055;-78
2022/07/15 12:22:35;;;;;;;2.40;0.90;;;21.00;92.90;;;;;;5116762;27;20407;-77
2022/07/15 12:25:03;;;;;;;3.60;0.95;;;20.90;93.00;;;;;;5136447;27;20058;-77
2022/07/15 12:27:33;;;;;;;4.82;1.20;;;20.90;93.20;;;;;;5124987;27;20104;-77
2022/07/15 12:30:04;;;;;;;2.38;0.82;;;20.90;93.40;;;;;;5116492;28;20130;-77
2022/07/15 12:32:31;;;;;;;2.40;0.90;;;20.90;93.40;;;;;;5099012;28;20100;-77
2022/07/15 12:34:59;;;;;;;2.35;0.90;;;20.90;93.60;;;;;;5097772;28;20052;-78
2022/07/15 12:37:28;;;;;;;3.45;0.82;;;20.90;93.70;;;;;;5115727;28;20048;-76
2022/07/15 12:39:56;;;;;;;2.33;1.00;;;20.90;93.80;;;;;;5098992;28;20116;-77
2022/07/15 12:42:23;;;;;;;2.42;0.95;;;20.80;94.00;;;;;;5105762;27;20035;-78
2022/07/15 12:45:07;;;;;;;3.28;0.80;;;20.90;94.10;;;;;;5121175;27;20051;-78
2022/07/15 12:47:34;;;;;;;3.47;1.00;;;21.00;94.60;;;;;;5098264;28;20062;-77
2022/07/15 12:50:01;;;;;;;5.10;1.15;;;21.10;94.40;;;;;;5098052;28;20047;-78
2022/07/15 12:52:33;;;;;;;2.08;0.80;;;21.10;94.30;;;;;;5115761;28;20492;-76
2022/07/15 12:55:14;;;;;;;3.88;0.82;;;21.10;94.30;;;;;;5116596;28;20051;-78
2022/07/15 12:57:40;;;;;;;;;;;21.10;94.50;;;;;;5131598;27;20401;-77
2022/07/15 13:00:13;;;;;;;3.42;0.93;;;21.00;95.10;;;;;;5118266;27;20017;-77
2022/07/15 13:03:00;;;;;;;1.52;0.85;;;21.10;94.80;;;;;;5137164;27;20043;-78
2022/07/15 13:05:29;;;;;;;3.55;1.13;;;21.20;94.90;;;;;;5117180;27;20126;-78
2022/07/15 13:07:56;;;;;;;4.22;1.33;;;21.30;94.90;;;;;;5125595;27;20050;-79
2022/07/15 13:10:23;;;;;;;3.53;1.13;;;21.20;95.00;;;;;;5118440;27;20051;-78
2022/07/15 13:12:50;;;;;;;3.40;1.27;;;21.10;95.10;;;;;;5103818;28;20044;-78
2022/07/15 13:15:19;;;;;;;3.83;1.15;;;21.10;95.20;;;;;;5120582;28;20372;-78